sensor_id;sensor_type;location;lat;lon;timestamp;P1;durP1;ratioP1;P2;durP2;ratioP2
64018;SDS011;66942;52.138;5.216;2023-09-30T00:00:54;15.4;;;8.5;;
64018;SDS011;66942;52.138;5.216;2023-09-30T00:02:29;9.31;;;6.6;;
64018;SDS011;66942;52.138;5.216;2023-09-30T00:04:05;12.8;;;8.4;;
64018;SDS011;66942;52.138;5.216;2023-09-30T00:05:42;12.4;;;7.9;;
64018;SDS011;66942;52.138;5.216;2023-09-30T00:08:53;15.7;;;9.6;;
64018;SDS011;66942;52.138;5.216;2023-09-30T00:10:29;14.8;;;10.0;;
64018;SDS011;66942;52.138;5.216;2023-09-30T00:12:05;12.9;;;9.1;;
64018;SDS011;66942;52.138;5.216;2023-09-30T00:15:18;13.8;;;8.81;;
64018;SDS011;66942;52.138;5.216;2023-09-30T00:16:54;14.8;;;8.6;;
64018;SDS011;66942;52.138;5.216;2023-09-30T00:18:31;13.1;;;8.31;;
64018;SDS011;66942;52.138;5.216;2023-09-30T00:21:44;8.9;;;7.7;;
64018;SDS011;66942;52.138;5.216;2023-09-30T00:23:20;15.0;;;9.6;;
64018;SDS011;66942;52.138;5.216;2023-09-30T00:24:56;14.6;;;9.71;;
64018;SDS011;66942;52.138;5.216;2023-09-30T00:26:33;17.5;;;10.4;;
64018;SDS011;66942;52.138;5.216;2023-09-30T00:29:45;16.7;;;10.21;;
64018;SDS011;66942;52.138;5.216;2023-09-30T00:31:21;14.0;;;10.1;;
64018;SDS011;66942;52.138;5.216;2023-09-30T00:32:56;12.6;;;8.71;;
64018;SDS011;66942;52.138;5.216;2023-09-30T00:36:10;13.1;;;8.81;;
64018;SDS011;66942;52.138;5.216;2023-09-30T00:37:46;14.3;;;9.0;;
64018;SDS011;66942;52.138;5.216;2023-09-30T00:39:22;13.4;;;9.4;;
64018;SDS011;66942;52.138;5.216;2023-09-30T00:42:33;12.7;;;9.1;;
64018;SDS011;66942;52.138;5.216;2023-09-30T00:44:09;14.2;;;8.9;;
64018;SDS011;66942;52.138;5.216;2023-09-30T00:45:46;15.4;;;9.71;;
64018;SDS011;66942;52.138;5.216;2023-09-30T00:49:01;17.0;;;10.8;;
64018;SDS011;66942;52.138;5.216;2023-09-30T00:50:37;14.6;;;9.81;;
64018;SDS011;66942;52.138;5.216;2023-09-30T00:52:13;14.6;;;11.1;;
64018;SDS011;66942;52.138;5.216;2023-09-30T00:53:50;15.8;;;10.3;;
64018;SDS011;66942;52.138;5.216;2023-09-30T00:57:03;18.5;;;11.4;;
64018;SDS011;66942;52.138;5.216;2023-09-30T00:58:40;21.0;;;12.0;;
64018;SDS011;66942;52.138;5.216;2023-09-30T01:00:17;17.7;;;11.4;;
64018;SDS011;66942;52.138;5.216;2023-09-30T01:03:32;14.7;;;10.3;;
64018;SDS011;66942;52.138;5.216;2023-09-30T01:05:07;9.5;;;8.5;;
64018;SDS011;66942;52.138;5.216;2023-09-30T01:06:44;15.5;;;10.8;;
64018;SDS011;66942;52.138;5.216;2023-09-30T01:09:56;19.3;;;12.5;;
64018;SDS011;66942;52.138;5.216;2023-09-30T01:11:33;19.7;;;12.2;;
64018;SDS011;66942;52.138;5.216;2023-09-30T01:13:10;13.2;;;10.3;;
64018;SDS011;66942;52.138;5.216;2023-09-30T01:14:45;13.2;;;9.71;;
64018;SDS011;66942;52.138;5.216;2023-09-30T01:17:57;12.4;;;10.0;;
64018;SDS011;66942;52.138;5.216;2023-09-30T01:19:32;19.91;;;11.9;;
64018;SDS011;66942;52.138;5.216;2023-09-30T01:21:09;16.5;;;11.4;;
64018;SDS011;66942;52.138;5.216;2023-09-30T01:24:20;12.7;;;10.9;;
64018;SDS011;66942;52.138;5.216;2023-09-30T01:25:56;15.4;;;11.4;;
64018;SDS011;66942;52.138;5.216;2023-09-30T01:27:33;17.5;;;11.1;;
64018;SDS011;66942;52.138;5.216;2023-09-30T01:30:45;14.5;;;9.5;;
64018;SDS011;66942;52.138;5.216;2023-09-30T01:32:20;11.3;;;9.9;;
64018;SDS011;66942;52.138;5.216;2023-09-30T01:33:56;16.61;;;11.2;;
64018;SDS011;66942;52.138;5.216;2023-09-30T01:37:07;16.3;;;11.0;;
64018;SDS011;66942;52.138;5.216;2023-09-30T01:38:43;21.5;;;13.3;;
64018;SDS011;66942;52.138;5.216;2023-09-30T01:40:19;17.3;;;12.0;;
64018;SDS011;66942;52.138;5.216;2023-09-30T01:41:55;19.7;;;13.2;;
64018;SDS011;66942;52.138;5.216;2023-09-30T01:45:07;21.3;;;13.6;;
64018;SDS011;66942;52.138;5.216;2023-09-30T01:46:44;16.3;;;12.2;;
64018;SDS011;66942;52.138;5.216;2023-09-30T01:48:19;15.3;;;11.3;;
64018;SDS011;66942;52.138;5.216;2023-09-30T01:51:31;17.2;;;12.1;;
64018;SDS011;66942;52.138;5.216;2023-09-30T01:53:07;17.11;;;12.4;;
64018;SDS011;66942;52.138;5.216;2023-09-30T01:54:44;13.6;;;11.7;;
64018;SDS011;66942;52.138;5.216;2023-09-30T01:57:56;17.91;;;12.3;;
64018;SDS011;66942;52.138;5.216;2023-09-30T01:59:31;11.6;;;9.31;;
64018;SDS011;66942;52.138;5.216;2023-09-30T02:01:08;18.41;;;13.4;;
64018;SDS011;66942;52.138;5.216;2023-09-30T02:02:45;18.5;;;13.4;;
64018;SDS011;66942;52.138;5.216;2023-09-30T02:05:56;17.7;;;13.6;;
64018;SDS011;66942;52.138;5.216;2023-09-30T02:07:32;19.91;;;14.4;;
64018;SDS011;66942;52.138;5.216;2023-09-30T02:09:08;18.61;;;14.1;;
64018;SDS011;66942;52.138;5.216;2023-09-30T02:12:19;17.5;;;13.7;;
64018;SDS011;66942;52.138;5.216;2023-09-30T02:13:55;20.3;;;14.6;;
64018;SDS011;66942;52.138;5.216;2023-09-30T02:15:30;18.91;;;13.1;;
64018;SDS011;66942;52.138;5.216;2023-09-30T02:18:42;16.61;;;12.5;;
64018;SDS011;66942;52.138;5.216;2023-09-30T02:20:19;16.3;;;12.8;;
64018;SDS011;66942;52.138;5.216;2023-09-30T02:21:55;21.3;;;15.1;;
64018;SDS011;66942;52.138;5.216;2023-09-30T02:25:08;15.7;;;13.4;;
64018;SDS011;66942;52.138;5.216;2023-09-30T02:26:44;17.8;;;13.9;;
64018;SDS011;66942;52.138;5.216;2023-09-30T02:28:20;19.5;;;14.0;;
64018;SDS011;66942;52.138;5.216;2023-09-30T02:31:32;18.7;;;14.1;;
64018;SDS011;66942;52.138;5.216;2023-09-30T02:33:08;20.7;;;14.3;;
64018;SDS011;66942;52.138;5.216;2023-09-30T02:34:44;20.9;;;14.2;;
64018;SDS011;66942;52.138;5.216;2023-09-30T02:36:19;21.7;;;14.7;;
64018;SDS011;66942;52.138;5.216;2023-09-30T02:39:31;18.7;;;15.1;;
64018;SDS011;66942;52.138;5.216;2023-09-30T02:41:07;20.6;;;14.5;;
64018;SDS011;66942;52.138;5.216;2023-09-30T02:42:43;18.61;;;14.0;;
64018;SDS011;66942;52.138;5.216;2023-09-30T02:45:55;17.41;;;13.2;;
64018;SDS011;66942;52.138;5.216;2023-09-30T02:47:31;21.1;;;16.11;;
64018;SDS011;66942;52.138;5.216;2023-09-30T02:49:08;21.3;;;15.0;;
64018;SDS011;66942;52.138;5.216;2023-09-30T02:52:20;21.5;;;15.6;;
64018;SDS011;66942;52.138;5.216;2023-09-30T02:53:57;22.1;;;15.9;;
64018;SDS011;66942;52.138;5.216;2023-09-30T02:55:32;17.8;;;15.3;;
64018;SDS011;66942;52.138;5.216;2023-09-30T02:57:08;20.8;;;14.6;;
64018;SDS011;66942;52.138;5.216;2023-09-30T03:00:21;21.6;;;15.3;;
64018;SDS011;66942;52.138;5.216;2023-09-30T03:01:57;20.2;;;15.8;;
64018;SDS011;66942;52.138;5.216;2023-09-30T03:03:33;19.61;;;15.3;;
64018;SDS011;66942;52.138;5.216;2023-09-30T03:06:45;25.5;;;17.11;;
64018;SDS011;66942;52.138;5.216;2023-09-30T03:08:21;18.61;;;15.1;;
64018;SDS011;66942;52.138;5.216;2023-09-30T03:09:57;21.9;;;16.5;;
64018;SDS011;66942;52.138;5.216;2023-09-30T03:13:10;19.91;;;14.9;;
64018;SDS011;66942;52.138;5.216;2023-09-30T03:14:46;18.8;;;14.8;;
64018;SDS011;66942;52.138;5.216;2023-09-30T03:16:21;22.4;;;16.4;;
64018;SDS011;66942;52.138;5.216;2023-09-30T03:19:34;23.8;;;16.61;;
64018;SDS011;66942;52.138;5.216;2023-09-30T03:21:13;21.9;;;17.3;;
64018;SDS011;66942;52.138;5.216;2023-09-30T03:22:50;21.6;;;17.0;;
64018;SDS011;66942;52.138;5.216;2023-09-30T03:24:27;19.5;;;16.2;;
64018;SDS011;66942;52.138;5.216;2023-09-30T03:27:39;21.3;;;16.9;;
64018;SDS011;66942;52.138;5.216;2023-09-30T03:29:14;22.5;;;18.0;;
64018;SDS011;66942;52.138;5.216;2023-09-30T03:30:50;16.7;;;14.1;;
64018;SDS011;66942;52.138;5.216;2023-09-30T03:34:04;17.5;;;15.1;;
64018;SDS011;66942;52.138;5.216;2023-09-30T03:35:40;21.2;;;16.0;;
64018;SDS011;66942;52.138;5.216;2023-09-30T03:37:16;23.0;;;16.9;;
64018;SDS011;66942;52.138;5.216;2023-09-30T03:40:28;23.3;;;16.7;;
64018;SDS011;66942;52.138;5.216;2023-09-30T03:42:04;21.6;;;16.9;;
64018;SDS011;66942;52.138;5.216;2023-09-30T03:43:40;20.2;;;17.0;;
64018;SDS011;66942;52.138;5.216;2023-09-30T03:45:15;22.9;;;17.11;;
64018;SDS011;66942;52.138;5.216;2023-09-30T03:48:28;20.8;;;16.61;;
64018;SDS011;66942;52.138;5.216;2023-09-30T03:50:04;19.5;;;15.9;;
64018;SDS011;66942;52.138;5.216;2023-09-30T03:51:41;19.5;;;16.2;;
64018;SDS011;66942;52.138;5.216;2023-09-30T03:54:53;22.6;;;17.8;;
64018;SDS011;66942;52.138;5.216;2023-09-30T03:56:29;19.5;;;16.0;;
64018;SDS011;66942;52.138;5.216;2023-09-30T03:58:06;22.4;;;17.41;;
64018;SDS011;66942;52.138;5.216;2023-09-30T04:01:18;21.8;;;17.0;;
64018;SDS011;66942;52.138;5.216;2023-09-30T04:02:54;24.8;;;18.11;;
64018;SDS011;66942;52.138;5.216;2023-09-30T04:04:29;24.0;;;18.0;;
64018;SDS011;66942;52.138;5.216;2023-09-30T04:07:42;22.9;;;17.2;;
64018;SDS011;66942;52.138;5.216;2023-09-30T04:09:18;24.4;;;18.2;;
64018;SDS011;66942;52.138;5.216;2023-09-30T04:10:54;22.6;;;17.3;;
64018;SDS011;66942;52.138;5.216;2023-09-30T04:12:30;24.3;;;18.61;;
64018;SDS011;66942;52.138;5.216;2023-09-30T04:17:19;21.3;;;17.5;;
64018;SDS011;66942;52.138;5.216;2023-09-30T04:18:54;25.1;;;18.5;;
64018;SDS011;66942;52.138;5.216;2023-09-30T04:22:07;29.3;;;20.6;;
64018;SDS011;66942;52.138;5.216;2023-09-30T04:23:43;21.5;;;18.11;;
64018;SDS011;66942;52.138;5.216;2023-09-30T04:25:18;18.91;;;16.8;;
64018;SDS011;66942;52.138;5.216;2023-09-30T04:28:30;22.3;;;18.0;;
64018;SDS011;66942;52.138;5.216;2023-09-30T04:30:06;24.2;;;18.41;;
64018;SDS011;66942;52.138;5.216;2023-09-30T04:31:42;27.1;;;19.3;;
64018;SDS011;66942;52.138;5.216;2023-09-30T04:34:54;22.6;;;17.91;;
64018;SDS011;66942;52.138;5.216;2023-09-30T04:36:29;19.2;;;16.8;;
64018;SDS011;66942;52.138;5.216;2023-09-30T04:38:05;20.41;;;18.2;;
64018;SDS011;66942;52.138;5.216;2023-09-30T04:39:41;21.9;;;17.61;;
64018;SDS011;66942;52.138;5.216;2023-09-30T04:42:52;18.5;;;16.11;;
64018;SDS011;66942;52.138;5.216;2023-09-30T04:44:29;21.9;;;17.91;;
64018;SDS011;66942;52.138;5.216;2023-09-30T04:46:05;21.5;;;18.2;;
64018;SDS011;66942;52.138;5.216;2023-09-30T04:49:18;31.4;;;20.8;;
64018;SDS011;66942;52.138;5.216;2023-09-30T04:50:54;29.1;;;20.7;;
64018;SDS011;66942;52.138;5.216;2023-09-30T04:52:30;24.8;;;19.8;;
64018;SDS011;66942;52.138;5.216;2023-09-30T04:55:43;26.3;;;20.2;;
64018;SDS011;66942;52.138;5.216;2023-09-30T04:57:19;21.5;;;19.0;;
64018;SDS011;66942;52.138;5.216;2023-09-30T04:58:55;20.8;;;17.2;;
64018;SDS011;66942;52.138;5.216;2023-09-30T05:02:06;25.3;;;20.11;;
64018;SDS011;66942;52.138;5.216;2023-09-30T05:03:42;29.7;;;22.0;;
64018;SDS011;66942;52.138;5.216;2023-09-30T05:05:18;30.2;;;22.7;;
64018;SDS011;66942;52.138;5.216;2023-09-30T05:06:54;24.7;;;20.5;;
64018;SDS011;66942;52.138;5.216;2023-09-30T05:10:07;27.6;;;21.4;;
64018;SDS011;66942;52.138;5.216;2023-09-30T05:11:44;26.7;;;20.5;;
64018;SDS011;66942;52.138;5.216;2023-09-30T05:13:20;27.0;;;20.8;;
64018;SDS011;66942;52.138;5.216;2023-09-30T05:16:32;25.7;;;21.7;;
64018;SDS011;66942;52.138;5.216;2023-09-30T05:18:08;25.8;;;20.41;;
64018;SDS011;66942;52.138;5.216;2023-09-30T05:19:44;25.3;;;21.1;;
64018;SDS011;66942;52.138;5.216;2023-09-30T05:22:57;30.4;;;22.9;;
64018;SDS011;66942;52.138;5.216;2023-09-30T05:24:33;27.8;;;22.6;;
64018;SDS011;66942;52.138;5.216;2023-09-30T05:26:09;25.8;;;21.2;;
64018;SDS011;66942;52.138;5.216;2023-09-30T05:29:22;23.3;;;20.41;;
64018;SDS011;66942;52.138;5.216;2023-09-30T05:30:59;29.1;;;22.9;;
64018;SDS011;66942;52.138;5.216;2023-09-30T05:32:35;30.8;;;23.8;;
64018;SDS011;66942;52.138;5.216;2023-09-30T05:34:11;31.3;;;24.4;;
64018;SDS011;66942;52.138;5.216;2023-09-30T05:37:23;29.8;;;24.2;;
64018;SDS011;66942;52.138;5.216;2023-09-30T05:39:00;31.8;;;23.4;;
64018;SDS011;66942;52.138;5.216;2023-09-30T05:40:37;25.0;;;21.5;;
64018;SDS011;66942;52.138;5.216;2023-09-30T05:43:49;28.4;;;22.1;;
64018;SDS011;66942;52.138;5.216;2023-09-30T05:45:25;24.9;;;21.8;;
64018;SDS011;66942;52.138;5.216;2023-09-30T05:47:03;29.7;;;22.8;;
64018;SDS011;66942;52.138;5.216;2023-09-30T05:50:17;29.8;;;24.0;;
64018;SDS011;66942;52.138;5.216;2023-09-30T05:51:54;30.6;;;23.4;;
64018;SDS011;66942;52.138;5.216;2023-09-30T05:53:30;17.8;;;16.2;;
64018;SDS011;66942;52.138;5.216;2023-09-30T05:55:07;31.1;;;24.7;;
64018;SDS011;66942;52.138;5.216;2023-09-30T05:58:20;33.3;;;25.9;;
64018;SDS011;66942;52.138;5.216;2023-09-30T05:59:56;28.5;;;23.3;;
64018;SDS011;66942;52.138;5.216;2023-09-30T06:01:32;34.0;;;25.1;;
64018;SDS011;66942;52.138;5.216;2023-09-30T06:04:45;39.1;;;28.1;;
64018;SDS011;66942;52.138;5.216;2023-09-30T06:06:21;27.2;;;23.7;;
64018;SDS011;66942;52.138;5.216;2023-09-30T06:07:58;35.6;;;26.6;;
64018;SDS011;66942;52.138;5.216;2023-09-30T06:11:16;35.1;;;27.2;;
64018;SDS011;66942;52.138;5.216;2023-09-30T06:12:53;29.5;;;24.0;;
64018;SDS011;66942;52.138;5.216;2023-09-30T06:14:30;38.31;;;27.9;;
64018;SDS011;66942;52.138;5.216;2023-09-30T06:16:06;28.7;;;24.1;;
64018;SDS011;66942;52.138;5.216;2023-09-30T06:19:18;32.6;;;26.5;;
64018;SDS011;66942;52.138;5.216;2023-09-30T06:20:54;36.21;;;27.1;;
64018;SDS011;66942;52.138;5.216;2023-09-30T06:22:30;26.2;;;22.8;;
64018;SDS011;66942;52.138;5.216;2023-09-30T06:25:42;35.1;;;26.9;;
64018;SDS011;66942;52.138;5.216;2023-09-30T06:27:18;33.0;;;27.5;;
64018;SDS011;66942;52.138;5.216;2023-09-30T06:28:54;36.0;;;29.3;;
64018;SDS011;66942;52.138;5.216;2023-09-30T06:32:07;31.7;;;25.1;;
64018;SDS011;66942;52.138;5.216;2023-09-30T06:33:43;29.7;;;25.1;;
64018;SDS011;66942;52.138;5.216;2023-09-30T06:35:19;30.2;;;26.1;;
64018;SDS011;66942;52.138;5.216;2023-09-30T06:36:55;34.81;;;29.3;;
64018;SDS011;66942;52.138;5.216;2023-09-30T06:40:08;28.5;;;24.8;;
64018;SDS011;66942;52.138;5.216;2023-09-30T06:41:45;30.4;;;25.4;;
64018;SDS011;66942;52.138;5.216;2023-09-30T06:43:21;32.1;;;26.8;;
64018;SDS011;66942;52.138;5.216;2023-09-30T06:46:33;39.5;;;31.4;;
64018;SDS011;66942;52.138;5.216;2023-09-30T06:48:10;35.1;;;29.8;;
64018;SDS011;66942;52.138;5.216;2023-09-30T06:49:47;33.9;;;28.9;;
64018;SDS011;66942;52.138;5.216;2023-09-30T06:52:59;30.6;;;27.2;;
64018;SDS011;66942;52.138;5.216;2023-09-30T06:54:35;34.0;;;28.2;;
64018;SDS011;66942;52.138;5.216;2023-09-30T06:56:11;24.1;;;21.8;;
64018;SDS011;66942;52.138;5.216;2023-09-30T06:57:47;36.4;;;30.3;;
64018;SDS011;66942;52.138;5.216;2023-09-30T07:00:59;34.4;;;30.7;;
64018;SDS011;66942;52.138;5.216;2023-09-30T07:02:35;38.81;;;34.81;;
64018;SDS011;66942;52.138;5.216;2023-09-30T07:04:12;38.9;;;33.71;;
64018;SDS011;66942;52.138;5.216;2023-09-30T07:07:23;37.5;;;33.6;;
64018;SDS011;66942;52.138;5.216;2023-09-30T07:08:59;35.81;;;32.1;;
64018;SDS011;66942;52.138;5.216;2023-09-30T07:10:35;37.5;;;33.4;;
64018;SDS011;66942;52.138;5.216;2023-09-30T07:13:47;33.3;;;29.9;;
64018;SDS011;66942;52.138;5.216;2023-09-30T07:15:23;29.5;;;26.6;;
64018;SDS011;66942;52.138;5.216;2023-09-30T07:16:59;31.6;;;28.5;;
64018;SDS011;66942;52.138;5.216;2023-09-30T07:20:12;31.4;;;28.4;;
64018;SDS011;66942;52.138;5.216;2023-09-30T07:21:48;30.9;;;28.0;;
64018;SDS011;66942;52.138;5.216;2023-09-30T07:23:24;34.5;;;31.0;;
64018;SDS011;66942;52.138;5.216;2023-09-30T07:25:00;31.9;;;28.7;;
64018;SDS011;66942;52.138;5.216;2023-09-30T07:28:12;36.9;;;32.4;;
64018;SDS011;66942;52.138;5.216;2023-09-30T07:29:48;34.81;;;31.0;;
64018;SDS011;66942;52.138;5.216;2023-09-30T07:31:24;37.6;;;33.71;;
64018;SDS011;66942;52.138;5.216;2023-09-30T07:34:36;37.6;;;33.71;;
64018;SDS011;66942;52.138;5.216;2023-09-30T07:36:13;32.71;;;29.4;;
64018;SDS011;66942;52.138;5.216;2023-09-30T07:37:50;31.3;;;28.1;;
64018;SDS011;66942;52.138;5.216;2023-09-30T07:41:02;30.7;;;27.4;;
64018;SDS011;66942;52.138;5.216;2023-09-30T07:42:38;31.6;;;28.4;;
64018;SDS011;66942;52.138;5.216;2023-09-30T07:44:14;32.3;;;28.9;;
64018;SDS011;66942;52.138;5.216;2023-09-30T07:45:50;30.6;;;27.4;;
64018;SDS011;66942;52.138;5.216;2023-09-30T07:49:02;30.6;;;27.3;;
64018;SDS011;66942;52.138;5.216;2023-09-30T07:50:38;28.6;;;25.9;;
64018;SDS011;66942;52.138;5.216;2023-09-30T07:52:14;30.5;;;27.5;;
64018;SDS011;66942;52.138;5.216;2023-09-30T07:55:27;28.4;;;25.3;;
64018;SDS011;66942;52.138;5.216;2023-09-30T07:57:03;26.9;;;24.4;;
64018;SDS011;66942;52.138;5.216;2023-09-30T07:58:39;24.5;;;22.1;;
64018;SDS011;66942;52.138;5.216;2023-09-30T08:01:52;28.2;;;25.4;;
64018;SDS011;66942;52.138;5.216;2023-09-30T08:03:28;23.7;;;21.3;;
64018;SDS011;66942;52.138;5.216;2023-09-30T08:05:05;23.5;;;21.3;;
64018;SDS011;66942;52.138;5.216;2023-09-30T08:08:18;23.6;;;21.2;;
64018;SDS011;66942;52.138;5.216;2023-09-30T08:09:55;25.9;;;23.4;;
64018;SDS011;66942;52.138;5.216;2023-09-30T08:11:31;21.7;;;19.7;;
64018;SDS011;66942;52.138;5.216;2023-09-30T08:13:07;21.4;;;19.2;;
64018;SDS011;66942;52.138;5.216;2023-09-30T08:16:19;24.4;;;22.1;;
64018;SDS011;66942;52.138;5.216;2023-09-30T08:17:55;22.4;;;20.2;;
64018;SDS011;66942;52.138;5.216;2023-09-30T08:19:31;22.0;;;19.8;;
64018;SDS011;66942;52.138;5.216;2023-09-30T08:22:44;21.5;;;19.5;;
64018;SDS011;66942;52.138;5.216;2023-09-30T08:24:20;21.3;;;19.3;;
64018;SDS011;66942;52.138;5.216;2023-09-30T08:25:58;20.41;;;18.5;;
64018;SDS011;66942;52.138;5.216;2023-09-30T08:29:12;21.4;;;19.3;;
64018;SDS011;66942;52.138;5.216;2023-09-30T08:30:48;20.41;;;18.2;;
64018;SDS011;66942;52.138;5.216;2023-09-30T08:32:24;20.41;;;18.2;;
64018;SDS011;66942;52.138;5.216;2023-09-30T08:34:00;19.0;;;17.11;;
64018;SDS011;66942;52.138;5.216;2023-09-30T08:37:13;18.7;;;17.0;;
64018;SDS011;66942;52.138;5.216;2023-09-30T08:38:49;20.7;;;18.7;;
64018;SDS011;66942;52.138;5.216;2023-09-30T08:40:25;20.3;;;18.3;;
64018;SDS011;66942;52.138;5.216;2023-09-30T08:43:38;19.41;;;17.5;;
64018;SDS011;66942;52.138;5.216;2023-09-30T08:45:16;18.91;;;17.11;;
64018;SDS011;66942;52.138;5.216;2023-09-30T08:46:53;17.8;;;16.11;;
64018;SDS011;66942;52.138;5.216;2023-09-30T08:50:08;18.8;;;16.8;;
64018;SDS011;66942;52.138;5.216;2023-09-30T08:51:45;18.61;;;16.7;;
64018;SDS011;66942;52.138;5.216;2023-09-30T08:53:24;18.41;;;16.7;;
64018;SDS011;66942;52.138;5.216;2023-09-30T08:55:02;16.61;;;14.9;;
64018;SDS011;66942;52.138;5.216;2023-09-30T08:58:19;14.4;;;13.2;;
64018;SDS011;66942;52.138;5.216;2023-09-30T08:59:59;16.11;;;14.4;;
64018;SDS011;66942;52.138;5.216;2023-09-30T09:01:36;16.11;;;14.5;;
64018;SDS011;66942;52.138;5.216;2023-09-30T09:03:15;14.5;;;13.2;;
64018;SDS011;66942;52.138;5.216;2023-09-30T09:06:27;14.0;;;12.6;;
64018;SDS011;66942;52.138;5.216;2023-09-30T09:08:04;15.2;;;13.6;;
64018;SDS011;66942;52.138;5.216;2023-09-30T09:09:39;15.5;;;13.8;;
64018;SDS011;66942;52.138;5.216;2023-09-30T09:12:55;15.1;;;13.5;;
64018;SDS011;66942;52.138;5.216;2023-09-30T09:14:36;13.6;;;12.3;;
64018;SDS011;66942;52.138;5.216;2023-09-30T09:16:13;17.2;;;13.5;;
64018;SDS011;66942;52.138;5.216;2023-09-30T09:19:25;13.7;;;12.3;;
64018;SDS011;66942;52.138;5.216;2023-09-30T09:21:09;13.4;;;12.0;;
64018;SDS011;66942;52.138;5.216;2023-09-30T09:22:46;14.2;;;12.6;;
64018;SDS011;66942;52.138;5.216;2023-09-30T09:24:28;14.3;;;12.1;;
64018;SDS011;66942;52.138;5.216;2023-09-30T09:27:41;14.0;;;11.8;;
64018;SDS011;66942;52.138;5.216;2023-09-30T09:29:17;12.1;;;10.4;;
64018;SDS011;66942;52.138;5.216;2023-09-30T09:31:01;11.8;;;10.3;;
64018;SDS011;66942;52.138;5.216;2023-09-30T09:32:37;11.1;;;9.6;;
64018;SDS011;66942;52.138;5.216;2023-09-30T09:35:50;11.1;;;10.0;;
64018;SDS011;66942;52.138;5.216;2023-09-30T09:37:26;13.6;;;10.0;;
64018;SDS011;66942;52.138;5.216;2023-09-30T09:39:02;9.81;;;8.81;;
64018;SDS011;66942;52.138;5.216;2023-09-30T09:42:16;12.6;;;9.4;;
64018;SDS011;66942;52.138;5.216;2023-09-30T09:43:59;10.3;;;8.9;;
64018;SDS011;66942;52.138;5.216;2023-09-30T09:45:36;10.21;;;9.0;;
64018;SDS011;66942;52.138;5.216;2023-09-30T09:47:12;9.9;;;8.9;;
64018;SDS011;66942;52.138;5.216;2023-09-30T09:50:26;10.1;;;8.1;;
64018;SDS011;66942;52.138;5.216;2023-09-30T09:52:02;10.5;;;8.6;;
64018;SDS011;66942;52.138;5.216;2023-09-30T09:53:40;8.4;;;7.3;;
64018;SDS011;66942;52.138;5.216;2023-09-30T09:56:55;8.81;;;7.2;;
64018;SDS011;66942;52.138;5.216;2023-09-30T09:58:36;9.21;;;7.2;;
64018;SDS011;66942;52.138;5.216;2023-09-30T10:00:12;10.0;;;7.8;;
64018;SDS011;66942;52.138;5.216;2023-09-30T10:01:51;10.4;;;7.8;;
64018;SDS011;66942;52.138;5.216;2023-09-30T10:05:03;8.2;;;6.9;;
64018;SDS011;66942;52.138;5.216;2023-09-30T10:06:40;6.3;;;5.6;;
64018;SDS011;66942;52.138;5.216;2023-09-30T10:08:20;8.1;;;5.6;;
64018;SDS011;66942;52.138;5.216;2023-09-30T10:11:56;7.8;;;4.91;;
64018;SDS011;66942;52.138;5.216;2023-09-30T10:14:05;10.4;;;4.8;;
64018;SDS011;66942;52.138;5.216;2023-09-30T10:15:41;8.81;;;5.11;;
64018;SDS011;66942;52.138;5.216;2023-09-30T10:17:18;8.5;;;5.2;;
64018;SDS011;66942;52.138;5.216;2023-09-30T10:19:06;6.8;;;4.91;;
64018;SDS011;66942;52.138;5.216;2023-09-30T10:20:43;7.6;;;5.8;;
64018;SDS011;66942;52.138;5.216;2023-09-30T10:24:19;8.31;;;5.8;;
64018;SDS011;66942;52.138;5.216;2023-09-30T10:26:19;8.2;;;5.4;;
64018;SDS011;66942;52.138;5.216;2023-09-30T10:27:55;9.5;;;6.0;;
64018;SDS011;66942;52.138;5.216;2023-09-30T10:29:39;7.7;;;5.6;;
64018;SDS011;66942;52.138;5.216;2023-09-30T10:31:16;7.5;;;5.6;;
64018;SDS011;66942;52.138;5.216;2023-09-30T10:34:47;6.9;;;5.3;;
64018;SDS011;66942;52.138;5.216;2023-09-30T10:36:26;8.4;;;5.6;;
64018;SDS011;66942;52.138;5.216;2023-09-30T10:38:36;6.6;;;5.3;;
64018;SDS011;66942;52.138;5.216;2023-09-30T10:40:21;8.1;;;5.8;;
64018;SDS011;66942;52.138;5.216;2023-09-30T10:42:02;9.9;;;5.6;;
64018;SDS011;66942;52.138;5.216;2023-09-30T10:45:48;7.1;;;5.4;;
64018;SDS011;66942;52.138;5.216;2023-09-30T10:47:39;6.6;;;5.0;;
64018;SDS011;66942;52.138;5.216;2023-09-30T10:49:16;7.9;;;5.8;;
64018;SDS011;66942;52.138;5.216;2023-09-30T10:51:20;8.6;;;5.8;;
64018;SDS011;66942;52.138;5.216;2023-09-30T10:53:00;7.9;;;5.4;;
64018;SDS011;66942;52.138;5.216;2023-09-30T10:54:39;8.9;;;5.6;;
64018;SDS011;66942;52.138;5.216;2023-09-30T10:56:15;6.9;;;5.0;;
64018;SDS011;66942;52.138;5.216;2023-09-30T10:59:28;6.7;;;4.3;;
64018;SDS011;66942;52.138;5.216;2023-09-30T11:01:04;7.5;;;5.11;;
64018;SDS011;66942;52.138;5.216;2023-09-30T11:02:48;6.9;;;5.0;;
64018;SDS011;66942;52.138;5.216;2023-09-30T11:06:01;7.3;;;4.5;;
64018;SDS011;66942;52.138;5.216;2023-09-30T11:07:38;7.3;;;5.2;;
64018;SDS011;66942;52.138;5.216;2023-09-30T11:09:15;10.4;;;5.3;;
64018;SDS011;66942;52.138;5.216;2023-09-30T11:10:52;8.81;;;5.7;;
64018;SDS011;66942;52.138;5.216;2023-09-30T11:14:16;8.71;;;4.5;;
64018;SDS011;66942;52.138;5.216;2023-09-30T11:15:59;6.3;;;4.2;;
64018;SDS011;66942;52.138;5.216;2023-09-30T11:17:36;8.31;;;4.91;;
64018;SDS011;66942;52.138;5.216;2023-09-30T11:20:48;6.6;;;3.9;;
64018;SDS011;66942;52.138;5.216;2023-09-30T11:22:24;4.91;;;3.4;;
64018;SDS011;66942;52.138;5.216;2023-09-30T11:24:00;5.0;;;3.1;;
64018;SDS011;66942;52.138;5.216;2023-09-30T11:25:36;8.31;;;3.7;;
64018;SDS011;66942;52.138;5.216;2023-09-30T11:29:05;7.5;;;3.9;;
64018;SDS011;66942;52.138;5.216;2023-09-30T11:30:57;6.3;;;3.5;;
64018;SDS011;66942;52.138;5.216;2023-09-30T11:32:35;6.5;;;4.1;;
64018;SDS011;66942;52.138;5.216;2023-09-30T11:34:11;7.3;;;4.1;;
64018;SDS011;66942;52.138;5.216;2023-09-30T11:37:32;5.9;;;4.0;;
64018;SDS011;66942;52.138;5.216;2023-09-30T11:39:09;5.7;;;3.6;;
64018;SDS011;66942;52.138;5.216;2023-09-30T11:40:57;7.3;;;3.9;;
64018;SDS011;66942;52.138;5.216;2023-09-30T11:42:33;7.7;;;4.3;;
64018;SDS011;66942;52.138;5.216;2023-09-30T11:45:48;6.6;;;4.0;;
64018;SDS011;66942;52.138;5.216;2023-09-30T11:47:31;9.0;;;4.1;;
64018;SDS011;66942;52.138;5.216;2023-09-30T11:49:07;6.0;;;3.5;;
64018;SDS011;66942;52.138;5.216;2023-09-30T11:50:45;8.1;;;4.0;;
64018;SDS011;66942;52.138;5.216;2023-09-30T11:54:03;6.7;;;4.1;;
64018;SDS011;66942;52.138;5.216;2023-09-30T11:55:39;4.8;;;3.4;;
64018;SDS011;66942;52.138;5.216;2023-09-30T11:57:16;6.2;;;3.7;;
64018;SDS011;66942;52.138;5.216;2023-09-30T12:00:29;8.71;;;4.0;;
64018;SDS011;66942;52.138;5.216;2023-09-30T12:02:05;7.0;;;3.9;;
64018;SDS011;66942;52.138;5.216;2023-09-30T12:03:41;5.6;;;3.7;;
64018;SDS011;66942;52.138;5.216;2023-09-30T12:05:18;6.1;;;3.6;;
64018;SDS011;66942;52.138;5.216;2023-09-30T12:08:30;6.9;;;4.0;;
64018;SDS011;66942;52.138;5.216;2023-09-30T12:10:06;7.0;;;4.1;;
64018;SDS011;66942;52.138;5.216;2023-09-30T12:11:43;7.1;;;4.2;;
64018;SDS011;66942;52.138;5.216;2023-09-30T12:14:56;6.4;;;4.2;;
64018;SDS011;66942;52.138;5.216;2023-09-30T12:16:32;8.0;;;4.41;;
64018;SDS011;66942;52.138;5.216;2023-09-30T12:18:08;6.5;;;3.6;;
64018;SDS011;66942;52.138;5.216;2023-09-30T12:21:21;6.6;;;3.6;;
64018;SDS011;66942;52.138;5.216;2023-09-30T12:22:57;7.2;;;4.3;;
64018;SDS011;66942;52.138;5.216;2023-09-30T12:24:33;6.4;;;4.1;;
64018;SDS011;66942;52.138;5.216;2023-09-30T12:27:46;6.4;;;3.5;;
64018;SDS011;66942;52.138;5.216;2023-09-30T12:29:22;7.5;;;4.1;;
64018;SDS011;66942;52.138;5.216;2023-09-30T12:30:59;5.7;;;3.9;;
64018;SDS011;66942;52.138;5.216;2023-09-30T12:32:36;5.7;;;3.6;;
64018;SDS011;66942;52.138;5.216;2023-09-30T12:35:48;5.5;;;3.9;;
64018;SDS011;66942;52.138;5.216;2023-09-30T12:37:24;5.5;;;3.7;;
64018;SDS011;66942;52.138;5.216;2023-09-30T12:39:01;6.9;;;3.9;;
64018;SDS011;66942;52.138;5.216;2023-09-30T12:42:13;7.1;;;3.7;;